createdAt,value
2019-01-14T00:02:12.932Z,5.60
2019-01-14T00:04:44.032Z,5.60
2019-01-14T00:07:15.156Z,5.60
2019-01-14T00:09:46.367Z,5.60
2019-01-14T00:12:17.486Z,5.50
2019-01-14T00:14:49.028Z,5.50
2019-01-14T00:17:20.624Z,5.50
2019-01-14T00:19:52.160Z,5.50
2019-01-14T00:22:25.724Z,5.50
2019-01-14T00:24:57.136Z,5.50
2019-01-14T00:27:29.463Z,5.50
2019-01-14T00:30:00.928Z,5.50
2019-01-14T00:32:33.820Z,5.50
2019-01-14T00:35:08.024Z,5.50
2019-01-14T00:37:39.651Z,5.40
2019-01-14T00:40:14.165Z,5.50
2019-01-14T00:42:46.318Z,5.50
2019-01-14T00:45:17.665Z,5.50
2019-01-14T00:47:48.807Z,5.50
2019-01-14T00:50:20.225Z,5.50
2019-01-14T00:52:51.931Z,5.50
2019-01-14T00:55:23.747Z,5.50
2019-01-14T00:57:54.814Z,5.50
2019-01-14T01:00:26.427Z,5.50
2019-01-14T01:02:57.958Z,5.50
2019-01-14T01:05:29.413Z,5.50
2019-01-14T01:08:00.672Z,5.50
2019-01-14T01:10:32.237Z,5.50
2019-01-14T01:13:05.310Z,5.50
2019-01-14T01:15:36.421Z,5.50
2019-01-14T01:18:07.503Z,5.50
2019-01-14T01:20:38.993Z,5.50
2019-01-14T01:23:10.042Z,5.50
2019-01-14T01:25:41.211Z,5.50
2019-01-14T01:28:12.431Z,5.50
2019-01-14T01:30:43.500Z,5.60
2019-01-14T01:33:14.829Z,5.60
2019-01-14T01:35:47.523Z,5.50
2019-01-14T01:38:18.720Z,5.50
2019-01-14T01:40:50.358Z,5.60
2019-01-14T01:43:22.319Z,5.60
2019-01-14T01:45:54.496Z,5.60
2019-01-14T01:48:26.214Z,5.60
2019-01-14T01:50:57.731Z,5.60
2019-01-14T01:53:29.686Z,5.60
2019-01-14T01:56:01.168Z,5.60
2019-01-14T01:58:32.330Z,5.60
2019-01-14T02:01:04.155Z,5.50
2019-01-14T02:03:35.644Z,5.50
2019-01-14T02:06:07.740Z,5.50
2019-01-14T02:08:39.454Z,5.50
2019-01-14T02:11:10.552Z,5.60
2019-01-14T02:13:41.767Z,5.60
2019-01-14T02:16:12.939Z,5.60
2019-01-14T02:18:44.025Z,5.60
2019-01-14T02:21:15.224Z,5.60
2019-01-14T02:23:46.464Z,5.60
2019-01-14T02:26:17.748Z,5.60
2019-01-14T02:28:48.861Z,5.60
2019-01-14T02:31:19.932Z,5.60
2019-01-14T02:33:51.543Z,5.50
2019-01-14T02:36:22.588Z,5.50
2019-01-14T02:38:53.678Z,5.50
2019-01-14T02:41:24.809Z,5.40
2019-01-14T02:43:56.036Z,5.30
2019-01-14T02:46:27.150Z,5.30
2019-01-14T02:48:58.221Z,5.30
2019-01-14T02:51:30.385Z,5.20
2019-01-14T02:54:01.449Z,5.20
2019-01-14T02:56:32.588Z,5.10
2019-01-14T02:59:03.700Z,5.10
2019-01-14T03:01:34.960Z,5.10
2019-01-14T03:04:06.260Z,5.00
2019-01-14T03:06:37.424Z,5.00
2019-01-14T03:09:09.407Z,5.00
2019-01-14T03:11:40.576Z,5.00
2019-01-14T03:14:11.702Z,5.00
2019-01-14T03:16:42.918Z,5.00
2019-01-14T03:19:14.009Z,5.00
2019-01-14T03:21:45.118Z,5.10
2019-01-14T03:24:16.183Z,5.10
2019-01-14T03:26:47.347Z,5.10
2019-01-14T03:29:18.405Z,5.10
2019-01-14T03:31:49.567Z,5.10
2019-01-14T03:34:20.706Z,5.10
2019-01-14T03:36:51.794Z,5.00
2019-01-14T03:39:22.850Z,4.90
2019-01-14T03:41:54.074Z,4.80
2019-01-14T03:44:25.169Z,4.80
2019-01-14T03:46:56.223Z,4.70
2019-01-14T03:49:27.254Z,4.60
2019-01-14T03:51:58.336Z,4.60
2019-01-14T03:54:30.138Z,4.60
2019-01-14T03:57:01.195Z,4.60
2019-01-14T03:59:32.308Z,4.50
2019-01-14T04:02:03.347Z,4.50
2019-01-14T04:04:34.478Z,4.60
2019-01-14T04:07:13.391Z,4.60
2019-01-14T04:09:38.296Z,4.60
2019-01-14T04:12:09.409Z,4.60
2019-01-14T04:14:40.534Z,4.50
2019-01-14T04:17:11.611Z,4.50
2019-01-14T04:19:42.760Z,4.50
2019-01-14T04:22:13.799Z,4.50
2019-01-14T04:24:44.902Z,4.40
2019-01-14T04:27:15.936Z,4.40
2019-01-14T04:29:47.106Z,4.40
2019-01-14T04:32:18.174Z,4.40
2019-01-14T04:34:49.251Z,4.40
2019-01-14T04:37:21.679Z,4.40
2019-01-14T04:39:52.894Z,4.40
2019-01-14T04:42:24.039Z,4.40
2019-01-14T04:44:55.092Z,4.40
2019-01-14T04:47:26.212Z,4.40
2019-01-14T04:49:57.253Z,4.40
2019-01-14T04:52:28.337Z,4.40
2019-01-14T04:54:59.416Z,4.40
2019-01-14T04:57:30.501Z,4.40
2019-01-14T05:00:01.566Z,4.40
2019-01-14T05:02:32.705Z,4.30
2019-01-14T05:05:04.392Z,4.30
2019-01-14T05:07:37.044Z,4.30
2019-01-14T05:10:09.223Z,4.20
2019-01-14T05:12:40.310Z,4.20
2019-01-14T05:15:12.720Z,4.20
2019-01-14T05:17:43.755Z,4.20
2019-01-14T05:20:20.490Z,4.20
2019-01-14T05:22:52.204Z,4.10
2019-01-14T05:25:23.466Z,4.10
2019-01-14T05:27:54.703Z,4.10
2019-01-14T05:30:25.819Z,4.10
2019-01-14T05:32:56.905Z,4.00
2019-01-14T05:35:28.108Z,4.00
2019-01-14T05:37:59.201Z,4.00
2019-01-14T05:40:30.279Z,4.00
2019-01-14T05:43:01.470Z,4.00
2019-01-14T05:45:32.546Z,4.10
2019-01-14T05:48:03.644Z,4.10
2019-01-14T05:50:34.793Z,4.10
2019-01-14T05:53:05.925Z,4.10
2019-01-14T05:55:36.973Z,4.20
2019-01-14T05:58:08.049Z,4.20
2019-01-14T06:00:49.330Z,4.20
2019-01-14T06:03:20.502Z,4.20
2019-01-14T06:05:51.904Z,4.20
2019-01-14T06:08:22.964Z,4.20
2019-01-14T06:10:57.239Z,4.20
2019-01-14T06:13:50.245Z,4.20
2019-01-14T06:16:30.913Z,4.20
2019-01-14T06:19:17.715Z,4.20
2019-01-14T06:22:02.233Z,4.20
2019-01-14T06:24:38.046Z,4.10
2019-01-14T06:27:15.363Z,4.10
2019-01-14T06:29:46.503Z,3.90
2019-01-14T06:32:17.577Z,3.50
2019-01-14T06:34:48.916Z,3.20
2019-01-14T06:37:19.904Z,3.10
2019-01-14T06:39:50.989Z,3.00
2019-01-14T06:42:22.093Z,3.00
2019-01-14T06:44:53.174Z,3.00
2019-01-14T06:47:24.247Z,3.00
2019-01-14T06:49:55.381Z,3.00
2019-01-14T06:52:26.536Z,3.00
2019-01-14T06:54:57.712Z,3.00
2019-01-14T06:57:29.814Z,3.00
2019-01-14T07:00:00.922Z,3.00
2019-01-14T07:02:33.229Z,3.00
2019-01-14T07:05:05.087Z,3.00
2019-01-14T07:07:36.150Z,3.00
2019-01-14T07:10:09.084Z,3.10
2019-01-14T07:12:40.139Z,3.10
2019-01-14T07:15:11.430Z,3.10
2019-01-14T07:17:42.515Z,3.10
2019-01-14T07:20:13.744Z,3.10
2019-01-14T07:22:44.836Z,3.10
2019-01-14T07:25:16.065Z,3.20
2019-01-14T07:27:47.146Z,3.30
2019-01-14T07:30:19.912Z,3.30
2019-01-14T07:32:51.000Z,3.30
2019-01-14T07:35:22.092Z,3.40
2019-01-14T07:37:53.280Z,3.50
2019-01-14T07:40:24.508Z,3.50
2019-01-14T07:42:55.912Z,3.50
2019-01-14T07:45:27.017Z,3.30
2019-01-14T07:47:58.123Z,3.10
2019-01-14T07:50:29.231Z,3.00
2019-01-14T07:53:00.467Z,2.90
2019-01-14T07:55:31.557Z,2.80
2019-01-14T07:58:02.663Z,2.80
2019-01-14T08:00:33.788Z,2.80
2019-01-14T08:03:05.305Z,2.80
2019-01-14T08:05:36.472Z,2.50
2019-01-14T08:08:13.790Z,2.30
2019-01-14T08:10:40.360Z,2.00
2019-01-14T08:13:11.540Z,1.80
2019-01-14T08:15:42.705Z,1.70
2019-01-14T08:18:13.730Z,1.50
2019-01-14T08:20:44.927Z,1.40
2019-01-14T08:23:15.979Z,1.40
2019-01-14T08:25:52.685Z,1.30
2019-01-14T08:28:24.113Z,1.40
2019-01-14T08:30:56.419Z,1.50
2019-01-14T08:33:27.638Z,1.60
2019-01-14T08:35:58.715Z,1.70
2019-01-14T08:38:29.787Z,1.70
2019-01-14T08:41:01.069Z,1.80
2019-01-14T08:43:34.855Z,1.90
2019-01-14T08:46:06.016Z,2.00
2019-01-14T08:48:37.185Z,2.10
2019-01-14T08:51:08.253Z,2.20
2019-01-14T08:53:39.402Z,2.30
2019-01-14T08:56:10.548Z,2.40
2019-01-14T08:58:41.710Z,2.50
2019-01-14T09:01:12.790Z,2.60
2019-01-14T09:03:43.972Z,2.60
2019-01-14T09:06:15.069Z,2.70
2019-01-14T09:08:47.225Z,2.80
2019-01-14T09:11:18.296Z,2.90
2019-01-14T09:13:49.386Z,3.00
2019-01-14T09:16:20.617Z,3.10
2019-01-14T09:18:51.820Z,3.10
2019-01-14T09:21:22.873Z,3.20
2019-01-14T09:23:54.033Z,3.30
2019-01-14T09:26:25.154Z,3.30
2019-01-14T09:28:57.303Z,3.40
2019-01-14T09:31:29.995Z,3.50
2019-01-14T09:34:03.969Z,3.60
2019-01-14T09:36:35.067Z,3.70
2019-01-14T09:39:09.762Z,3.70
2019-01-14T09:41:40.895Z,3.70
2019-01-14T09:44:12.183Z,3.80
2019-01-14T09:46:45.643Z,3.80
2019-01-14T09:49:16.794Z,3.70
2019-01-14T09:51:47.895Z,3.70
2019-01-14T09:54:18.943Z,3.70
2019-01-14T09:56:50.060Z,3.70
2019-01-14T09:59:21.226Z,3.70
2019-01-14T10:01:52.290Z,3.80
2019-01-14T10:04:23.479Z,3.80
2019-01-14T10:06:54.509Z,3.80
2019-01-14T10:09:25.691Z,3.90
2019-01-14T10:11:56.780Z,4.10
2019-01-14T10:14:27.930Z,4.10
2019-01-14T10:16:59.175Z,3.90
2019-01-14T10:19:30.388Z,3.70
2019-01-14T10:22:01.579Z,3.50
2019-01-14T10:24:32.678Z,3.40
2019-01-14T10:27:03.800Z,3.30
2019-01-14T10:29:34.993Z,3.30
2019-01-14T10:32:06.261Z,3.20
2019-01-14T10:34:37.478Z,3.20
2019-01-14T10:37:08.740Z,3.20
2019-01-14T10:39:39.850Z,3.30
2019-01-14T10:42:11.072Z,3.30
2019-01-14T10:44:42.288Z,3.40
2019-01-14T10:47:13.392Z,3.40
2019-01-14T10:49:44.597Z,3.50
2019-01-14T10:52:15.761Z,3.50
2019-01-14T10:54:47.252Z,3.60
2019-01-14T10:57:18.449Z,3.60
2019-01-14T10:59:49.667Z,3.50
2019-01-14T11:02:20.782Z,3.40
2019-01-14T11:04:51.952Z,3.30
2019-01-14T11:07:23.131Z,3.20
2019-01-14T11:09:54.294Z,3.10
2019-01-14T11:12:25.420Z,3.10
2019-01-14T11:14:56.557Z,3.00
2019-01-14T11:17:27.881Z,3.10
2019-01-14T11:19:59.032Z,3.30
2019-01-14T11:22:30.138Z,3.40
2019-01-14T11:25:02.486Z,3.40
2019-01-14T11:27:33.956Z,3.30
2019-01-14T11:30:07.519Z,3.10
2019-01-14T11:32:38.749Z,2.90
2019-01-14T11:35:09.892Z,2.80
2019-01-14T11:37:41.127Z,2.70
2019-01-14T11:40:20.802Z,2.60
2019-01-14T11:42:52.026Z,2.50
2019-01-14T11:45:23.241Z,2.50
2019-01-14T11:47:54.504Z,2.50
2019-01-14T11:50:25.614Z,2.70
2019-01-14T11:52:56.741Z,3.00
2019-01-14T11:55:27.819Z,3.10
2019-01-14T11:57:59.095Z,3.30
2019-01-14T12:00:36.618Z,3.40
2019-01-14T12:03:03.303Z,3.50
2019-01-14T12:05:34.485Z,3.40
2019-01-14T12:08:05.962Z,3.30
2019-01-14T12:10:37.140Z,3.20
2019-01-14T12:13:08.196Z,3.10
2019-01-14T12:15:39.460Z,3.10
2019-01-14T12:18:11.158Z,3.10
2019-01-14T12:20:42.228Z,3.20
2019-01-14T12:23:13.637Z,3.30
2019-01-14T12:25:44.722Z,3.30
2019-01-14T12:28:15.846Z,3.10
2019-01-14T12:30:47.097Z,2.80
2019-01-14T12:33:18.261Z,2.80
2019-01-14T12:35:49.510Z,2.90
2019-01-14T12:38:20.581Z,2.80
2019-01-14T12:40:51.712Z,2.80
2019-01-14T12:43:22.820Z,2.80
2019-01-14T12:45:53.894Z,2.70
2019-01-14T12:48:25.203Z,2.70
2019-01-14T12:50:56.358Z,2.60
2019-01-14T12:53:27.528Z,2.60
2019-01-14T12:55:58.719Z,2.70
2019-01-14T12:58:29.811Z,2.80
2019-01-14T13:01:00.959Z,3.00
2019-01-14T13:03:32.039Z,3.10
2019-01-14T16:30:29.861Z,-1.20
2019-01-14T16:33:01.024Z,-1.00
2019-01-14T16:35:32.229Z,-0.90
2019-01-14T16:38:03.327Z,-0.90
2019-01-14T16:40:34.490Z,-0.90
2019-01-14T16:43:05.642Z,-0.80
2019-01-14T16:45:36.769Z,-0.80
2019-01-14T16:48:08.166Z,-0.80
2019-01-14T16:50:39.245Z,-0.80
2019-01-14T16:53:10.497Z,-0.90
2019-01-14T16:55:50.878Z,-0.90
2019-01-14T16:58:22.130Z,-0.90
2019-01-14T17:00:53.821Z,-1.00
2019-01-14T17:03:25.119Z,-1.00
2019-01-14T17:05:56.242Z,-1.00
2019-01-14T17:08:27.555Z,-1.10
2019-01-14T17:10:58.805Z,-1.10
2019-01-14T17:13:30.142Z,-1.10
2019-01-14T17:16:01.255Z,-1.20
2019-01-14T17:18:32.401Z,-1.20
2019-01-14T17:21:03.815Z,-1.20
2019-01-14T17:23:36.028Z,-1.20
2019-01-14T17:26:07.423Z,-1.20
2019-01-14T17:28:38.779Z,-1.20
2019-01-14T17:31:10.018Z,-1.20
2019-01-14T17:33:41.209Z,-1.20
2019-01-14T17:36:12.361Z,-1.20
2019-01-14T17:38:43.589Z,-1.20
2019-01-14T17:41:14.932Z,-1.20
2019-01-14T17:43:46.162Z,-1.30
2019-01-14T17:46:17.340Z,-1.30
2019-01-14T17:48:48.502Z,-1.30
2019-01-14T17:51:19.655Z,-1.40
2019-01-14T17:53:50.741Z,-1.30
2019-01-14T17:56:21.859Z,-1.40
2019-01-14T17:58:53.022Z,-1.30
2019-01-14T18:01:24.209Z,-1.30
2019-01-14T18:03:55.275Z,-1.20
2019-01-14T18:06:29.403Z,-1.20
2019-01-14T18:09:00.598Z,-1.20
2019-01-14T18:11:31.861Z,-1.20
2019-01-14T18:14:06.962Z,-1.20
2019-01-14T18:16:42.167Z,-1.20
2019-01-14T18:19:20.326Z,-1.20
2019-01-14T18:21:51.530Z,-1.30
2019-01-14T18:24:22.677Z,-1.30
2019-01-14T18:26:53.927Z,-1.30
2019-01-14T18:29:25.402Z,-1.40
2019-01-14T18:31:56.656Z,-1.50
2019-01-14T18:34:28.045Z,-1.50
2019-01-14T18:37:01.795Z,-1.50
2019-01-14T18:39:33.998Z,-1.60
2019-01-14T18:42:05.278Z,-1.60
2019-01-14T18:44:37.006Z,-1.60
2019-01-14T18:47:08.825Z,-1.60
2019-01-14T18:49:39.982Z,-1.60
2019-01-14T18:52:11.420Z,-1.60
2019-01-14T18:54:43.371Z,-1.70
2019-01-14T18:57:15.543Z,-1.70
2019-01-14T18:59:47.789Z,-1.80
2019-01-14T19:02:20.712Z,-1.80
2019-01-14T19:04:53.003Z,-1.80
2019-01-14T19:07:25.953Z,-1.80
2019-01-14T19:10:19.685Z,-1.80
2019-01-14T19:12:52.298Z,-1.90
2019-01-14T19:15:24.574Z,-1.90
2019-01-14T19:17:57.215Z,-1.90
2019-01-14T19:20:29.644Z,-1.90
2019-01-14T19:23:00.975Z,-1.90
2019-01-14T19:25:32.569Z,-1.90
2019-01-14T19:28:03.780Z,-1.90
2019-01-14T19:30:34.914Z,-1.90
2019-01-14T19:33:06.272Z,-1.90
2019-01-14T19:35:37.449Z,-2.00
2019-01-14T19:38:08.748Z,-2.00
2019-01-14T19:40:39.935Z,-2.00
2019-01-14T19:43:11.279Z,-2.00
2019-01-14T19:45:49.532Z,-1.90
2019-01-14T19:48:15.312Z,-2.00
2019-01-14T19:50:46.508Z,-2.10
2019-01-14T19:53:17.858Z,-2.10
2019-01-14T19:55:58.863Z,-2.10
2019-01-14T19:58:30.064Z,-2.10
2019-01-14T20:01:01.334Z,-2.10
2019-01-14T20:03:32.549Z,-2.10
2019-01-14T20:06:03.780Z,-2.10
2019-01-14T20:08:42.167Z,-2.10
2019-01-14T20:11:19.911Z,-2.20
2019-01-14T20:13:52.120Z,-2.20
2019-01-14T20:16:24.869Z,-2.20
2019-01-14T20:18:56.489Z,-2.20
2019-01-14T20:21:27.792Z,-2.10
2019-01-14T20:23:59.168Z,-2.10
2019-01-14T20:26:30.303Z,-2.10
2019-01-14T20:29:01.907Z,-2.00
2019-01-14T20:31:33.107Z,-2.00
2019-01-14T20:34:04.338Z,-1.90
2019-01-14T20:36:35.617Z,-1.90
2019-01-14T20:39:10.389Z,-1.80
2019-01-14T20:41:41.697Z,-1.80
2019-01-14T20:44:13.703Z,-1.90
2019-01-14T20:46:44.903Z,-1.90
2019-01-14T20:49:16.302Z,-1.80
2019-01-14T20:51:48.815Z,-1.80
2019-01-14T20:54:20.153Z,-1.70
2019-01-14T20:56:51.589Z,-1.70
2019-01-14T20:59:22.927Z,-1.70
2019-01-14T21:01:55.841Z,-1.60
2019-01-14T21:04:27.464Z,-1.70
2019-01-14T21:06:58.734Z,-1.70
2019-01-14T21:09:29.867Z,-1.70
2019-01-14T21:12:01.168Z,-1.70
2019-01-14T21:14:32.846Z,-1.70
2019-01-14T21:17:04.094Z,-1.70
2019-01-14T21:19:35.146Z,-1.60
2019-01-14T21:22:06.390Z,-1.60
2019-01-14T21:24:38.015Z,-1.60
2019-01-14T21:27:09.555Z,-1.60
2019-01-14T21:29:41.007Z,-1.60
2019-01-14T21:32:12.168Z,-1.60
2019-01-14T21:34:43.155Z,-1.60
2019-01-14T21:37:14.313Z,-1.60
2019-01-14T21:39:45.847Z,-1.60
2019-01-14T21:42:17.259Z,-1.50
2019-01-14T21:44:49.092Z,-1.50
2019-01-14T21:47:20.482Z,-1.50
2019-01-14T21:49:52.262Z,-1.50
2019-01-14T21:52:23.474Z,-1.50
2019-01-14T21:54:54.852Z,-1.40
2019-01-14T21:57:26.268Z,-1.50
2019-01-14T21:59:57.367Z,-1.50
2019-01-14T22:02:28.509Z,-1.50
2019-01-14T22:04:59.539Z,-1.50
2019-01-14T22:07:30.788Z,-1.40
2019-01-14T22:10:01.929Z,-1.50
2019-01-14T22:12:33.273Z,-1.50
2019-01-14T22:15:04.792Z,-1.40
2019-01-14T22:17:36.451Z,-1.40
2019-01-14T22:20:10.811Z,-1.40
2019-01-14T22:22:41.788Z,-1.40
2019-01-14T22:25:14.167Z,-1.30
2019-01-14T22:27:45.149Z,-1.30
2019-01-14T22:30:18.880Z,-1.20
2019-01-14T22:32:49.910Z,-1.10
2019-01-14T22:35:20.928Z,-1.00
2019-01-14T22:37:51.953Z,-0.90
2019-01-14T22:40:24.243Z,-0.80
2019-01-14T22:42:55.253Z,-0.80
2019-01-14T22:45:26.191Z,-0.70
2019-01-14T22:47:57.119Z,-0.70
2019-01-14T22:50:28.084Z,-0.60
2019-01-14T22:52:59.033Z,-0.60
2019-01-14T22:55:29.988Z,-0.50
2019-01-14T22:58:01.116Z,-0.50
2019-01-14T23:01:13.138Z,-0.40
2019-01-14T23:03:47.205Z,-0.40
2019-01-14T23:06:18.565Z,-0.30
2019-01-14T23:08:50.111Z,-0.30
2019-01-14T23:11:21.387Z,-0.30
2019-01-14T23:13:52.770Z,-0.30
2019-01-14T23:16:24.289Z,-0.20
2019-01-14T23:18:55.788Z,-0.20
2019-01-14T23:21:33.077Z,-0.20
2019-01-14T23:24:05.138Z,-0.10
2019-01-14T23:26:36.591Z,-0.10
2019-01-14T23:29:08.054Z,-0.10
2019-01-14T23:31:39.511Z,-0.10
2019-01-14T23:34:11.066Z,-0.20
2019-01-14T23:36:42.549Z,-0.10
2019-01-14T23:39:13.966Z,-0.10
2019-01-14T23:41:45.341Z,-0.10
2019-01-14T23:44:16.627Z,-0.10
2019-01-14T23:46:48.521Z,0.00
2019-01-14T23:49:21.540Z,0.00
2019-01-14T23:51:53.082Z,0.00
2019-01-14T23:54:24.882Z,0.00
2019-01-14T23:56:56.571Z,0.00
2019-01-14T23:59:28.100Z,0.00
